sensor_id;sensor_type;location;lat;lon;timestamp;P1;durP1;ratioP1;P2;durP2;ratioP2
21591;SDS011;10958;50.892;3.992;2023-03-29T00:00:33;5.53;;;2.20;;
21591;SDS011;10958;50.892;3.992;2023-03-29T00:02:59;5.90;;;2.20;;
21591;SDS011;10958;50.892;3.992;2023-03-29T00:05:27;4.75;;;1.83;;
21591;SDS011;10958;50.892;3.992;2023-03-29T00:07:53;3.78;;;2.35;;
21591;SDS011;10958;50.892;3.992;2023-03-29T00:10:27;4.97;;;2.30;;
21591;SDS011;10958;50.892;3.992;2023-03-29T00:12:55;3.58;;;2.58;;
21591;SDS011;10958;50.892;3.992;2023-03-29T00:15:22;3.88;;;2.10;;
21591;SDS011;10958;50.892;3.992;2023-03-29T00:17:48;5.03;;;2.08;;
21591;SDS011;10958;50.892;3.992;2023-03-29T00:20:14;7.25;;;2.40;;
21591;SDS011;10958;50.892;3.992;2023-03-29T00:22:41;4.43;;;2.33;;
21591;SDS011;10958;50.892;3.992;2023-03-29T00:25:09;6.32;;;2.13;;
21591;SDS011;10958;50.892;3.992;2023-03-29T00:27:35;5.00;;;2.30;;
21591;SDS011;10958;50.892;3.992;2023-03-29T00:30:04;6.13;;;2.00;;
21591;SDS011;10958;50.892;3.992;2023-03-29T00:32:34;5.45;;;2.33;;
21591;SDS011;10958;50.892;3.992;2023-03-29T00:34:59;5.75;;;2.30;;
21591;SDS011;10958;50.892;3.992;2023-03-29T00:37:28;5.25;;;2.30;;
21591;SDS011;10958;50.892;3.992;2023-03-29T00:39:54;6.65;;;2.67;;
21591;SDS011;10958;50.892;3.992;2023-03-29T00:42:21;3.83;;;2.60;;
21591;SDS011;10958;50.892;3.992;2023-03-29T00:47:27;4.40;;;2.25;;
21591;SDS011;10958;50.892;3.992;2023-03-29T00:50:20;5.28;;;2.45;;
21591;SDS011;10958;50.892;3.992;2023-03-29T00:53:13;6.30;;;2.08;;
21591;SDS011;10958;50.892;3.992;2023-03-29T00:55:50;4.38;;;1.98;;
21591;SDS011;10958;50.892;3.992;2023-03-29T00:58:27;7.25;;;2.53;;
21591;SDS011;10958;50.892;3.992;2023-03-29T01:01:00;5.70;;;2.33;;
21591;SDS011;10958;50.892;3.992;2023-03-29T01:03:33;4.78;;;2.30;;
21591;SDS011;10958;50.892;3.992;2023-03-29T01:06:10;6.82;;;2.50;;
21591;SDS011;10958;50.892;3.992;2023-03-29T01:08:48;8.27;;;3.08;;
21591;SDS011;10958;50.892;3.992;2023-03-29T01:11:37;6.13;;;2.50;;
21591;SDS011;10958;50.892;3.992;2023-03-29T01:14:16;4.57;;;2.45;;
21591;SDS011;10958;50.892;3.992;2023-03-29T01:16:47;4.70;;;2.42;;
21591;SDS011;10958;50.892;3.992;2023-03-29T01:19:14;3.75;;;2.63;;
21591;SDS011;10958;50.892;3.992;2023-03-29T01:21:47;5.03;;;2.47;;
21591;SDS011;10958;50.892;3.992;2023-03-29T01:30:02;4.22;;;2.47;;
21591;SDS011;10958;50.892;3.992;2023-03-29T01:32:44;4.55;;;2.60;;
21591;SDS011;10958;50.892;3.992;2023-03-29T01:35:17;6.63;;;2.42;;
21591;SDS011;10958;50.892;3.992;2023-03-29T01:37:57;8.48;;;2.83;;
21591;SDS011;10958;50.892;3.992;2023-03-29T01:40:33;4.70;;;2.45;;
21591;SDS011;10958;50.892;3.992;2023-03-29T01:43:09;6.03;;;2.90;;
21591;SDS011;10958;50.892;3.992;2023-03-29T01:45:45;5.60;;;2.65;;
21591;SDS011;10958;50.892;3.992;2023-03-29T01:48:17;4.85;;;2.67;;
21591;SDS011;10958;50.892;3.992;2023-03-29T01:51:28;4.43;;;2.65;;
21591;SDS011;10958;50.892;3.992;2023-03-29T01:53:46;4.10;;;2.28;;
21591;SDS011;10958;50.892;3.992;2023-03-29T01:56:16;8.15;;;2.65;;
21591;SDS011;10958;50.892;3.992;2023-03-29T01:58:48;4.53;;;2.50;;
21591;SDS011;10958;50.892;3.992;2023-03-29T02:01:20;7.22;;;3.00;;
21591;SDS011;10958;50.892;3.992;2023-03-29T02:03:51;8.88;;;2.95;;
21591;SDS011;10958;50.892;3.992;2023-03-29T02:06:21;5.85;;;2.58;;
21591;SDS011;10958;50.892;3.992;2023-03-29T02:08:52;5.25;;;2.72;;
21591;SDS011;10958;50.892;3.992;2023-03-29T02:11:19;6.93;;;2.70;;
21591;SDS011;10958;50.892;3.992;2023-03-29T02:13:47;3.83;;;2.25;;
21591;SDS011;10958;50.892;3.992;2023-03-29T02:16:13;5.63;;;2.90;;
21591;SDS011;10958;50.892;3.992;2023-03-29T02:18:40;6.45;;;2.85;;
21591;SDS011;10958;50.892;3.992;2023-03-29T02:21:07;6.15;;;2.83;;
21591;SDS011;10958;50.892;3.992;2023-03-29T02:23:37;5.72;;;2.70;;
21591;SDS011;10958;50.892;3.992;2023-03-29T02:26:09;4.53;;;2.67;;
21591;SDS011;10958;50.892;3.992;2023-03-29T02:28:38;3.80;;;2.63;;
21591;SDS011;10958;50.892;3.992;2023-03-29T02:31:11;7.53;;;2.45;;
21591;SDS011;10958;50.892;3.992;2023-03-29T02:36:21;5.65;;;2.65;;
21591;SDS011;10958;50.892;3.992;2023-03-29T02:38:55;4.13;;;2.70;;
21591;SDS011;10958;50.892;3.992;2023-03-29T02:41:29;6.50;;;2.90;;
21591;SDS011;10958;50.892;3.992;2023-03-29T02:43:56;5.78;;;2.78;;
21591;SDS011;10958;50.892;3.992;2023-03-29T02:46:24;5.80;;;3.00;;
21591;SDS011;10958;50.892;3.992;2023-03-29T02:48:52;5.90;;;2.75;;
21591;SDS011;10958;50.892;3.992;2023-03-29T02:51:21;4.68;;;3.00;;
21591;SDS011;10958;50.892;3.992;2023-03-29T02:53:58;8.68;;;2.90;;
21591;SDS011;10958;50.892;3.992;2023-03-29T02:56:27;5.47;;;3.15;;
21591;SDS011;10958;50.892;3.992;2023-03-29T02:59:08;4.78;;;2.63;;
21591;SDS011;10958;50.892;3.992;2023-03-29T03:01:35;9.45;;;2.78;;
21591;SDS011;10958;50.892;3.992;2023-03-29T03:04:02;5.10;;;3.20;;
21591;SDS011;10958;50.892;3.992;2023-03-29T03:06:28;5.32;;;2.60;;
21591;SDS011;10958;50.892;3.992;2023-03-29T03:08:54;6.05;;;2.90;;
21591;SDS011;10958;50.892;3.992;2023-03-29T03:11:20;4.80;;;2.67;;
21591;SDS011;10958;50.892;3.992;2023-03-29T03:13:46;5.35;;;2.70;;
21591;SDS011;10958;50.892;3.992;2023-03-29T03:16:12;7.45;;;2.70;;
21591;SDS011;10958;50.892;3.992;2023-03-29T03:18:38;6.93;;;3.00;;
21591;SDS011;10958;50.892;3.992;2023-03-29T03:21:06;5.53;;;3.00;;
21591;SDS011;10958;50.892;3.992;2023-03-29T03:23:34;5.13;;;3.05;;
21591;SDS011;10958;50.892;3.992;2023-03-29T03:26:01;5.93;;;3.08;;
21591;SDS011;10958;50.892;3.992;2023-03-29T03:28:27;4.38;;;2.63;;
21591;SDS011;10958;50.892;3.992;2023-03-29T03:30:52;6.35;;;3.42;;
21591;SDS011;10958;50.892;3.992;2023-03-29T03:33:20;5.40;;;3.35;;
21591;SDS011;10958;50.892;3.992;2023-03-29T03:35:49;6.05;;;3.10;;
21591;SDS011;10958;50.892;3.992;2023-03-29T03:38:17;6.78;;;3.78;;
21591;SDS011;10958;50.892;3.992;2023-03-29T03:40:42;5.47;;;3.40;;
21591;SDS011;10958;50.892;3.992;2023-03-29T03:43:10;5.88;;;3.40;;
21591;SDS011;10958;50.892;3.992;2023-03-29T03:45:36;7.18;;;3.70;;
21591;SDS011;10958;50.892;3.992;2023-03-29T03:48:06;8.13;;;3.40;;
21591;SDS011;10958;50.892;3.992;2023-03-29T03:50:31;7.68;;;3.58;;
21591;SDS011;10958;50.892;3.992;2023-03-29T03:52:57;8.77;;;3.47;;
21591;SDS011;10958;50.892;3.992;2023-03-29T03:55:23;9.80;;;3.15;;
21591;SDS011;10958;50.892;3.992;2023-03-29T03:57:49;8.27;;;3.22;;
21591;SDS011;10958;50.892;3.992;2023-03-29T04:00:16;8.82;;;3.00;;
21591;SDS011;10958;50.892;3.992;2023-03-29T04:02:45;8.23;;;3.50;;
21591;SDS011;10958;50.892;3.992;2023-03-29T04:05:12;5.97;;;3.03;;
21591;SDS011;10958;50.892;3.992;2023-03-29T04:07:39;5.15;;;3.17;;
21591;SDS011;10958;50.892;3.992;2023-03-29T04:10:05;6.13;;;3.47;;
21591;SDS011;10958;50.892;3.992;2023-03-29T04:12:33;6.15;;;2.95;;
21591;SDS011;10958;50.892;3.992;2023-03-29T04:15:03;8.82;;;3.45;;
21591;SDS011;10958;50.892;3.992;2023-03-29T04:17:29;4.07;;;2.83;;
21591;SDS011;10958;50.892;3.992;2023-03-29T04:19:55;6.30;;;3.15;;
21591;SDS011;10958;50.892;3.992;2023-03-29T04:22:21;7.38;;;3.22;;
21591;SDS011;10958;50.892;3.992;2023-03-29T04:24:50;5.25;;;3.00;;
21591;SDS011;10958;50.892;3.992;2023-03-29T04:27:16;7.07;;;3.20;;
21591;SDS011;10958;50.892;3.992;2023-03-29T04:29:42;5.50;;;3.45;;
21591;SDS011;10958;50.892;3.992;2023-03-29T04:32:10;5.78;;;3.00;;
21591;SDS011;10958;50.892;3.992;2023-03-29T04:34:37;7.40;;;3.42;;
21591;SDS011;10958;50.892;3.992;2023-03-29T04:37:03;7.38;;;3.45;;
21591;SDS011;10958;50.892;3.992;2023-03-29T04:39:37;8.63;;;3.70;;
21591;SDS011;10958;50.892;3.992;2023-03-29T04:42:04;5.93;;;3.35;;
21591;SDS011;10958;50.892;3.992;2023-03-29T04:44:30;5.30;;;3.40;;
21591;SDS011;10958;50.892;3.992;2023-03-29T04:46:59;6.85;;;3.30;;
21591;SDS011;10958;50.892;3.992;2023-03-29T04:49:25;6.18;;;3.30;;
21591;SDS011;10958;50.892;3.992;2023-03-29T04:51:51;5.88;;;3.22;;
21591;SDS011;10958;50.892;3.992;2023-03-29T04:54:20;8.02;;;3.53;;
21591;SDS011;10958;50.892;3.992;2023-03-29T04:56:46;9.02;;;3.40;;
21591;SDS011;10958;50.892;3.992;2023-03-29T04:59:12;7.68;;;3.50;;
21591;SDS011;10958;50.892;3.992;2023-03-29T05:01:38;8.85;;;3.63;;
21591;SDS011;10958;50.892;3.992;2023-03-29T05:04:04;6.93;;;3.10;;
21591;SDS011;10958;50.892;3.992;2023-03-29T05:06:30;8.43;;;3.75;;
21591;SDS011;10958;50.892;3.992;2023-03-29T05:08:58;13.87;;;4.00;;
21591;SDS011;10958;50.892;3.992;2023-03-29T05:11:25;6.03;;;3.28;;
21591;SDS011;10958;50.892;3.992;2023-03-29T05:13:51;7.80;;;3.72;;
21591;SDS011;10958;50.892;3.992;2023-03-29T05:16:19;7.80;;;3.92;;
21591;SDS011;10958;50.892;3.992;2023-03-29T05:18:45;7.95;;;3.30;;
21591;SDS011;10958;50.892;3.992;2023-03-29T05:21:11;10.23;;;4.15;;
21591;SDS011;10958;50.892;3.992;2023-03-29T05:23:37;9.32;;;3.95;;
21591;SDS011;10958;50.892;3.992;2023-03-29T05:26:03;10.32;;;3.60;;
21591;SDS011;10958;50.892;3.992;2023-03-29T05:28:31;10.07;;;4.05;;
21591;SDS011;10958;50.892;3.992;2023-03-29T05:30:58;7.72;;;3.97;;
21591;SDS011;10958;50.892;3.992;2023-03-29T05:33:25;9.35;;;3.60;;
21591;SDS011;10958;50.892;3.992;2023-03-29T05:35:57;5.53;;;3.85;;
21591;SDS011;10958;50.892;3.992;2023-03-29T05:38:24;11.27;;;3.88;;
21591;SDS011;10958;50.892;3.992;2023-03-29T05:43:20;10.15;;;4.22;;
21591;SDS011;10958;50.892;3.992;2023-03-29T05:45:46;11.85;;;3.42;;
21591;SDS011;10958;50.892;3.992;2023-03-29T05:48:13;8.77;;;3.92;;
21591;SDS011;10958;50.892;3.992;2023-03-29T05:50:38;8.05;;;3.60;;
21591;SDS011;10958;50.892;3.992;2023-03-29T05:53:04;9.25;;;3.70;;
21591;SDS011;10958;50.892;3.992;2023-03-29T05:55:29;7.35;;;4.28;;
21591;SDS011;10958;50.892;3.992;2023-03-29T05:57:55;10.38;;;4.47;;
21591;SDS011;10958;50.892;3.992;2023-03-29T06:00:21;8.80;;;4.13;;
21591;SDS011;10958;50.892;3.992;2023-03-29T06:02:48;8.45;;;4.05;;
21591;SDS011;10958;50.892;3.992;2023-03-29T06:05:16;8.35;;;3.95;;
21591;SDS011;10958;50.892;3.992;2023-03-29T06:07:46;9.52;;;4.22;;
21591;SDS011;10958;50.892;3.992;2023-03-29T06:10:18;9.55;;;4.22;;
21591;SDS011;10958;50.892;3.992;2023-03-29T06:12:44;7.45;;;4.22;;
21591;SDS011;10958;50.892;3.992;2023-03-29T06:15:14;8.05;;;3.83;;
21591;SDS011;10958;50.892;3.992;2023-03-29T06:20:14;7.78;;;3.60;;
21591;SDS011;10958;50.892;3.992;2023-03-29T06:25:07;7.47;;;3.63;;
21591;SDS011;10958;50.892;3.992;2023-03-29T06:27:35;10.52;;;3.88;;
21591;SDS011;10958;50.892;3.992;2023-03-29T06:30:01;9.13;;;3.88;;
21591;SDS011;10958;50.892;3.992;2023-03-29T06:32:28;7.93;;;4.05;;
21591;SDS011;10958;50.892;3.992;2023-03-29T06:34:54;13.25;;;4.47;;
21591;SDS011;10958;50.892;3.992;2023-03-29T06:37:20;10.60;;;3.80;;
21591;SDS011;10958;50.892;3.992;2023-03-29T06:39:47;8.55;;;3.60;;
21591;SDS011;10958;50.892;3.992;2023-03-29T06:42:17;7.38;;;3.45;;
21591;SDS011;10958;50.892;3.992;2023-03-29T06:44:46;6.65;;;3.47;;
21591;SDS011;10958;50.892;3.992;2023-03-29T06:47:13;8.23;;;3.28;;
21591;SDS011;10958;50.892;3.992;2023-03-29T06:49:41;9.30;;;3.60;;
21591;SDS011;10958;50.892;3.992;2023-03-29T06:52:07;9.23;;;3.90;;
21591;SDS011;10958;50.892;3.992;2023-03-29T06:54:33;6.97;;;3.50;;
21591;SDS011;10958;50.892;3.992;2023-03-29T06:56:59;7.38;;;3.90;;
21591;SDS011;10958;50.892;3.992;2023-03-29T06:59:27;8.15;;;3.42;;
21591;SDS011;10958;50.892;3.992;2023-03-29T07:01:53;8.10;;;3.55;;
21591;SDS011;10958;50.892;3.992;2023-03-29T07:04:22;17.38;;;4.25;;
21591;SDS011;10958;50.892;3.992;2023-03-29T07:06:48;10.60;;;3.70;;
21591;SDS011;10958;50.892;3.992;2023-03-29T07:09:25;9.52;;;3.70;;
21591;SDS011;10958;50.892;3.992;2023-03-29T07:11:54;9.65;;;4.20;;
21591;SDS011;10958;50.892;3.992;2023-03-29T07:14:23;13.95;;;4.90;;
21591;SDS011;10958;50.892;3.992;2023-03-29T07:16:54;10.68;;;4.30;;
21591;SDS011;10958;50.892;3.992;2023-03-29T07:19:20;9.02;;;3.97;;
21591;SDS011;10958;50.892;3.992;2023-03-29T07:21:48;6.68;;;3.45;;
21591;SDS011;10958;50.892;3.992;2023-03-29T07:24:15;9.88;;;4.40;;
21591;SDS011;10958;50.892;3.992;2023-03-29T07:26:41;8.18;;;4.20;;
21591;SDS011;10958;50.892;3.992;2023-03-29T07:31:38;10.35;;;3.83;;
21591;SDS011;10958;50.892;3.992;2023-03-29T07:34:06;10.90;;;3.83;;
21591;SDS011;10958;50.892;3.992;2023-03-29T07:36:37;6.53;;;3.63;;
21591;SDS011;10958;50.892;3.992;2023-03-29T07:39:04;8.02;;;4.90;;
21591;SDS011;10958;50.892;3.992;2023-03-29T07:41:33;8.05;;;3.75;;
21591;SDS011;10958;50.892;3.992;2023-03-29T07:44:00;7.07;;;4.60;;
21591;SDS011;10958;50.892;3.992;2023-03-29T07:46:32;6.40;;;3.60;;
21591;SDS011;10958;50.892;3.992;2023-03-29T07:49:00;8.82;;;4.15;;
21591;SDS011;10958;50.892;3.992;2023-03-29T07:51:28;14.43;;;4.10;;
21591;SDS011;10958;50.892;3.992;2023-03-29T07:53:54;9.30;;;3.90;;
21591;SDS011;10958;50.892;3.992;2023-03-29T07:56:21;8.85;;;4.43;;
21591;SDS011;10958;50.892;3.992;2023-03-29T07:58:46;10.75;;;6.53;;
21591;SDS011;10958;50.892;3.992;2023-03-29T08:01:12;6.80;;;3.70;;
21591;SDS011;10958;50.892;3.992;2023-03-29T08:03:40;9.23;;;3.75;;
21591;SDS011;10958;50.892;3.992;2023-03-29T08:06:08;9.13;;;3.90;;
21591;SDS011;10958;50.892;3.992;2023-03-29T08:08:34;9.50;;;3.38;;
21591;SDS011;10958;50.892;3.992;2023-03-29T08:11:00;6.20;;;3.60;;
21591;SDS011;10958;50.892;3.992;2023-03-29T08:13:31;5.88;;;3.78;;
21591;SDS011;10958;50.892;3.992;2023-03-29T08:15:57;7.05;;;3.42;;
21591;SDS011;10958;50.892;3.992;2023-03-29T08:18:23;11.02;;;3.78;;
21591;SDS011;10958;50.892;3.992;2023-03-29T08:20:49;7.57;;;3.42;;
21591;SDS011;10958;50.892;3.992;2023-03-29T08:23:15;7.95;;;3.30;;
21591;SDS011;10958;50.892;3.992;2023-03-29T08:25:41;9.40;;;3.53;;
21591;SDS011;10958;50.892;3.992;2023-03-29T08:28:10;7.50;;;3.67;;
21591;SDS011;10958;50.892;3.992;2023-03-29T08:30:38;10.40;;;3.58;;
21591;SDS011;10958;50.892;3.992;2023-03-29T08:33:04;10.73;;;3.85;;
21591;SDS011;10958;50.892;3.992;2023-03-29T08:35:29;10.27;;;3.92;;
21591;SDS011;10958;50.892;3.992;2023-03-29T08:37:55;11.40;;;4.28;;
21591;SDS011;10958;50.892;3.992;2023-03-29T08:40:24;10.18;;;3.72;;
21591;SDS011;10958;50.892;3.992;2023-03-29T08:50:53;12.48;;;5.60;;
21591;SDS011;10958;50.892;3.992;2023-03-29T08:53:26;6.68;;;4.53;;
21591;SDS011;10958;50.892;3.992;2023-03-29T08:56:10;9.48;;;4.93;;
21591;SDS011;10958;50.892;3.992;2023-03-29T08:58:39;7.07;;;3.85;;
21591;SDS011;10958;50.892;3.992;2023-03-29T09:01:07;8.02;;;3.33;;
21591;SDS011;10958;50.892;3.992;2023-03-29T09:03:47;7.82;;;4.13;;
21591;SDS011;10958;50.892;3.992;2023-03-29T09:06:15;14.05;;;4.43;;
21591;SDS011;10958;50.892;3.992;2023-03-29T09:08:44;9.70;;;3.90;;
21591;SDS011;10958;50.892;3.992;2023-03-29T09:27:27;6.80;;;4.22;;
21591;SDS011;10958;50.892;3.992;2023-03-29T09:35:38;8.05;;;4.05;;
21591;SDS011;10958;50.892;3.992;2023-03-29T09:38:10;8.70;;;3.88;;
21591;SDS011;10958;50.892;3.992;2023-03-29T09:40:43;8.68;;;4.40;;
21591;SDS011;10958;50.892;3.992;2023-03-29T09:43:13;7.07;;;4.05;;
21591;SDS011;10958;50.892;3.992;2023-03-29T09:45:42;9.00;;;4.00;;
21591;SDS011;10958;50.892;3.992;2023-03-29T09:48:16;9.07;;;4.82;;
21591;SDS011;10958;50.892;3.992;2023-03-29T09:50:44;8.63;;;3.78;;
21591;SDS011;10958;50.892;3.992;2023-03-29T09:53:15;6.53;;;4.05;;
21591;SDS011;10958;50.892;3.992;2023-03-29T09:55:44;9.00;;;4.47;;
21591;SDS011;10958;50.892;3.992;2023-03-29T09:58:15;6.65;;;4.10;;
21591;SDS011;10958;50.892;3.992;2023-03-29T10:03:46;8.60;;;4.38;;
21591;SDS011;10958;50.892;3.992;2023-03-29T10:06:15;10.25;;;3.85;;
21591;SDS011;10958;50.892;3.992;2023-03-29T10:08:53;7.03;;;4.20;;
21591;SDS011;10958;50.892;3.992;2023-03-29T10:14:02;4.88;;;3.10;;
21591;SDS011;10958;50.892;3.992;2023-03-29T10:16:35;5.25;;;3.30;;
21591;SDS011;10958;50.892;3.992;2023-03-29T10:19:22;6.55;;;3.28;;
21591;SDS011;10958;50.892;3.992;2023-03-29T10:21:51;6.85;;;3.60;;
21591;SDS011;10958;50.892;3.992;2023-03-29T10:24:23;7.30;;;4.22;;
21591;SDS011;10958;50.892;3.992;2023-03-29T10:26:58;6.85;;;3.38;;
21591;SDS011;10958;50.892;3.992;2023-03-29T10:29:27;6.88;;;3.33;;
21591;SDS011;10958;50.892;3.992;2023-03-29T10:37:57;5.35;;;2.70;;
21591;SDS011;10958;50.892;3.992;2023-03-29T10:40:30;6.38;;;2.75;;
21591;SDS011;10958;50.892;3.992;2023-03-29T10:42:59;3.65;;;2.80;;
21591;SDS011;10958;50.892;3.992;2023-03-29T10:45:35;4.47;;;3.08;;
21591;SDS011;10958;50.892;3.992;2023-03-29T10:48:03;6.88;;;3.63;;
21591;SDS011;10958;50.892;3.992;2023-03-29T10:50:33;9.55;;;3.40;;
21591;SDS011;10958;50.892;3.992;2023-03-29T10:53:02;8.25;;;3.28;;
21591;SDS011;10958;50.892;3.992;2023-03-29T10:55:39;10.40;;;4.20;;
21591;SDS011;10958;50.892;3.992;2023-03-29T11:00:51;4.30;;;2.53;;
21591;SDS011;10958;50.892;3.992;2023-03-29T11:08:53;6.25;;;1.40;;
21591;SDS011;10958;50.892;3.992;2023-03-29T11:19:18;5.10;;;2.67;;
21591;SDS011;10958;50.892;3.992;2023-03-29T11:24:26;3.35;;;2.20;;
21591;SDS011;10958;50.892;3.992;2023-03-29T11:27:14;5.38;;;2.42;;
21591;SDS011;10958;50.892;3.992;2023-03-29T11:32:47;5.10;;;2.45;;
21591;SDS011;10958;50.892;3.992;2023-03-29T11:35:31;6.22;;;3.05;;
21591;SDS011;10958;50.892;3.992;2023-03-29T11:43:36;6.65;;;3.47;;
21591;SDS011;10958;50.892;3.992;2023-03-29T11:46:20;7.28;;;2.90;;
21591;SDS011;10958;50.892;3.992;2023-03-29T11:48:52;4.35;;;2.75;;
21591;SDS011;10958;50.892;3.992;2023-03-29T11:51:25;4.35;;;2.45;;
21591;SDS011;10958;50.892;3.992;2023-03-29T12:02:10;2.55;;;1.77;;
21591;SDS011;10958;50.892;3.992;2023-03-29T12:04:40;4.60;;;2.38;;
21591;SDS011;10958;50.892;3.992;2023-03-29T12:07:16;2.72;;;1.42;;
21591;SDS011;10958;50.892;3.992;2023-03-29T12:15:25;2.38;;;1.70;;
21591;SDS011;10958;50.892;3.992;2023-03-29T12:20:58;3.25;;;2.60;;
21591;SDS011;10958;50.892;3.992;2023-03-29T12:23:33;5.53;;;2.40;;
21591;SDS011;10958;50.892;3.992;2023-03-29T12:37:20;3.45;;;1.98;;
21591;SDS011;10958;50.892;3.992;2023-03-29T12:39:50;4.85;;;2.10;;
21591;SDS011;10958;50.892;3.992;2023-03-29T12:42:21;3.90;;;2.10;;
21591;SDS011;10958;50.892;3.992;2023-03-29T12:44:57;3.45;;;2.10;;
21591;SDS011;10958;50.892;3.992;2023-03-29T12:47:35;5.13;;;2.15;;
21591;SDS011;10958;50.892;3.992;2023-03-29T12:55:50;4.28;;;2.47;;
21591;SDS011;10958;50.892;3.992;2023-03-29T12:58:40;4.63;;;2.30;;
21591;SDS011;10958;50.892;3.992;2023-03-29T13:01:32;3.20;;;2.03;;
21591;SDS011;10958;50.892;3.992;2023-03-29T13:06:55;3.10;;;2.20;;
21591;SDS011;10958;50.892;3.992;2023-03-29T13:09:31;3.30;;;2.10;;
21591;SDS011;10958;50.892;3.992;2023-03-29T13:14:36;4.93;;;2.20;;
21591;SDS011;10958;50.892;3.992;2023-03-29T13:17:08;4.03;;;2.60;;
21591;SDS011;10958;50.892;3.992;2023-03-29T13:28:27;4.30;;;2.80;;
21591;SDS011;10958;50.892;3.992;2023-03-29T13:39:21;5.25;;;3.25;;
21591;SDS011;10958;50.892;3.992;2023-03-29T13:41:52;4.55;;;3.30;;
21591;SDS011;10958;50.892;3.992;2023-03-29T13:44:50;5.78;;;3.10;;
21591;SDS011;10958;50.892;3.992;2023-03-29T13:49:58;7.22;;;3.40;;
21591;SDS011;10958;50.892;3.992;2023-03-29T13:52:59;5.60;;;3.40;;
21591;SDS011;10958;50.892;3.992;2023-03-29T13:55:31;8.07;;;3.58;;
21591;SDS011;10958;50.892;3.992;2023-03-29T13:58:06;3.90;;;3.05;;
21591;SDS011;10958;50.892;3.992;2023-03-29T14:00:41;4.68;;;3.00;;
21591;SDS011;10958;50.892;3.992;2023-03-29T14:03:19;3.88;;;2.95;;
21591;SDS011;10958;50.892;3.992;2023-03-29T14:05:56;6.22;;;3.10;;
21591;SDS011;10958;50.892;3.992;2023-03-29T14:08:30;4.72;;;3.47;;
21591;SDS011;10958;50.892;3.992;2023-03-29T14:11:03;5.63;;;3.08;;
21591;SDS011;10958;50.892;3.992;2023-03-29T14:13:31;5.50;;;3.60;;
21591;SDS011;10958;50.892;3.992;2023-03-29T14:16:00;5.53;;;3.30;;
21591;SDS011;10958;50.892;3.992;2023-03-29T14:18:33;8.90;;;3.88;;
21591;SDS011;10958;50.892;3.992;2023-03-29T14:21:05;5.53;;;3.42;;
21591;SDS011;10958;50.892;3.992;2023-03-29T14:23:31;5.38;;;3.35;;
21591;SDS011;10958;50.892;3.992;2023-03-29T14:26:08;6.53;;;3.35;;
21591;SDS011;10958;50.892;3.992;2023-03-29T14:28:59;6.85;;;4.40;;
21591;SDS011;10958;50.892;3.992;2023-03-29T14:31:28;8.07;;;4.75;;
21591;SDS011;10958;50.892;3.992;2023-03-29T14:33:58;4.10;;;3.50;;
21591;SDS011;10958;50.892;3.992;2023-03-29T14:36:26;5.77;;;3.93;;
21591;SDS011;10958;50.892;3.992;2023-03-29T14:39:04;10.00;;;4.15;;
21591;SDS011;10958;50.892;3.992;2023-03-29T14:41:37;7.38;;;4.25;;
21591;SDS011;10958;50.892;3.992;2023-03-29T14:44:04;6.22;;;3.97;;
21591;SDS011;10958;50.892;3.992;2023-03-29T14:46:31;12.55;;;5.05;;
21591;SDS011;10958;50.892;3.992;2023-03-29T14:48:58;6.68;;;4.07;;
21591;SDS011;10958;50.892;3.992;2023-03-29T14:51:26;7.53;;;4.13;;
21591;SDS011;10958;50.892;3.992;2023-03-29T14:53:56;5.60;;;4.00;;
21591;SDS011;10958;50.892;3.992;2023-03-29T14:56:24;8.63;;;4.22;;
21591;SDS011;10958;50.892;3.992;2023-03-29T14:58:54;5.82;;;3.97;;
21591;SDS011;10958;50.892;3.992;2023-03-29T15:01:24;6.97;;;4.50;;
21591;SDS011;10958;50.892;3.992;2023-03-29T15:06:24;7.30;;;3.60;;
21591;SDS011;10958;50.892;3.992;2023-03-29T15:08:51;11.57;;;3.80;;
21591;SDS011;10958;50.892;3.992;2023-03-29T15:11:24;5.38;;;3.85;;
21591;SDS011;10958;50.892;3.992;2023-03-29T15:13:54;12.02;;;4.00;;
21591;SDS011;10958;50.892;3.992;2023-03-29T15:16:30;8.57;;;4.30;;
21591;SDS011;10958;50.892;3.992;2023-03-29T15:18:57;3.92;;;3.38;;
21591;SDS011;10958;50.892;3.992;2023-03-29T15:23:56;5.93;;;3.20;;
21591;SDS011;10958;50.892;3.992;2023-03-29T15:26:24;7.07;;;3.78;;
21591;SDS011;10958;50.892;3.992;2023-03-29T15:29:01;9.07;;;4.03;;
21591;SDS011;10958;50.892;3.992;2023-03-29T15:31:32;6.95;;;3.83;;
21591;SDS011;10958;50.892;3.992;2023-03-29T15:34:23;7.25;;;4.07;;
21591;SDS011;10958;50.892;3.992;2023-03-29T15:36:50;9.90;;;3.78;;
21591;SDS011;10958;50.892;3.992;2023-03-29T15:39:16;6.93;;;3.88;;
21591;SDS011;10958;50.892;3.992;2023-03-29T15:41:44;9.35;;;4.53;;
21591;SDS011;10958;50.892;3.992;2023-03-29T15:44:13;8.85;;;4.15;;
21591;SDS011;10958;50.892;3.992;2023-03-29T15:46:41;8.45;;;4.05;;
21591;SDS011;10958;50.892;3.992;2023-03-29T15:49:10;8.85;;;4.38;;
21591;SDS011;10958;50.892;3.992;2023-03-29T15:51:39;8.18;;;4.55;;
21591;SDS011;10958;50.892;3.992;2023-03-29T15:54:08;8.82;;;3.97;;
21591;SDS011;10958;50.892;3.992;2023-03-29T15:56:45;11.00;;;4.38;;
21591;SDS011;10958;50.892;3.992;2023-03-29T15:59:14;7.30;;;4.50;;
21591;SDS011;10958;50.892;3.992;2023-03-29T16:01:41;10.80;;;4.38;;
21591;SDS011;10958;50.892;3.992;2023-03-29T16:04:12;11.95;;;4.15;;
21591;SDS011;10958;50.892;3.992;2023-03-29T16:06:42;9.88;;;4.53;;
21591;SDS011;10958;50.892;3.992;2023-03-29T16:09:09;5.90;;;3.60;;
21591;SDS011;10958;50.892;3.992;2023-03-29T16:11:36;9.65;;;3.75;;
21591;SDS011;10958;50.892;3.992;2023-03-29T16:14:05;11.93;;;3.97;;
21591;SDS011;10958;50.892;3.992;2023-03-29T16:16:38;7.43;;;4.10;;
21591;SDS011;10958;50.892;3.992;2023-03-29T16:19:04;11.75;;;3.92;;
21591;SDS011;10958;50.892;3.992;2023-03-29T16:21:30;9.20;;;4.07;;
21591;SDS011;10958;50.892;3.992;2023-03-29T16:23:56;9.70;;;4.25;;
21591;SDS011;10958;50.892;3.992;2023-03-29T16:26:22;7.95;;;4.07;;
21591;SDS011;10958;50.892;3.992;2023-03-29T16:28:50;7.63;;;3.72;;
21591;SDS011;10958;50.892;3.992;2023-03-29T16:31:17;8.48;;;4.18;;
21591;SDS011;10958;50.892;3.992;2023-03-29T16:33:44;7.53;;;4.22;;
21591;SDS011;10958;50.892;3.992;2023-03-29T16:36:10;7.03;;;3.88;;
21591;SDS011;10958;50.892;3.992;2023-03-29T16:38:37;7.22;;;4.18;;
21591;SDS011;10958;50.892;3.992;2023-03-29T16:41:02;8.80;;;4.60;;
21591;SDS011;10958;50.892;3.992;2023-03-29T16:43:28;12.73;;;5.60;;
21591;SDS011;10958;50.892;3.992;2023-03-29T16:45:54;12.38;;;5.47;;
21591;SDS011;10958;50.892;3.992;2023-03-29T16:48:20;9.23;;;4.85;;
21591;SDS011;10958;50.892;3.992;2023-03-29T16:50:50;8.13;;;4.10;;
21591;SDS011;10958;50.892;3.992;2023-03-29T16:53:16;11.25;;;3.58;;
21591;SDS011;10958;50.892;3.992;2023-03-29T16:55:46;10.65;;;4.15;;
21591;SDS011;10958;50.892;3.992;2023-03-29T16:58:12;10.55;;;3.80;;
21591;SDS011;10958;50.892;3.992;2023-03-29T17:00:39;9.50;;;4.22;;
21591;SDS011;10958;50.892;3.992;2023-03-29T17:03:05;6.90;;;4.07;;
21591;SDS011;10958;50.892;3.992;2023-03-29T17:05:32;9.32;;;4.40;;
21591;SDS011;10958;50.892;3.992;2023-03-29T17:08:03;12.40;;;4.63;;
21591;SDS011;10958;50.892;3.992;2023-03-29T17:10:30;14.98;;;4.97;;
21591;SDS011;10958;50.892;3.992;2023-03-29T17:12:58;8.57;;;4.25;;
21591;SDS011;10958;50.892;3.992;2023-03-29T17:15:24;9.95;;;4.72;;
21591;SDS011;10958;50.892;3.992;2023-03-29T17:17:52;12.27;;;5.43;;
21591;SDS011;10958;50.892;3.992;2023-03-29T17:20:20;10.63;;;5.32;;
21591;SDS011;10958;50.892;3.992;2023-03-29T17:22:46;12.23;;;5.30;;
21591;SDS011;10958;50.892;3.992;2023-03-29T17:27:41;12.57;;;5.03;;
21591;SDS011;10958;50.892;3.992;2023-03-29T17:30:07;10.95;;;5.05;;
21591;SDS011;10958;50.892;3.992;2023-03-29T17:32:33;10.50;;;5.25;;
21591;SDS011;10958;50.892;3.992;2023-03-29T17:34:59;11.10;;;6.10;;
21591;SDS011;10958;50.892;3.992;2023-03-29T17:37:25;11.63;;;6.22;;